sensor_id;sensor_type;location;lat;lon;timestamp;pressure;altitude;pressure_sealevel;temperature;humidity
22550;BME280;11441;57.164;-2.120;2023-04-25T00:00:05;101134.31;;;2.76;100.00
22550;BME280;11441;57.164;-2.120;2023-04-25T00:02:37;101153.56;;;2.80;100.00
22550;BME280;11441;57.164;-2.120;2023-04-25T00:05:23;101170.72;;;2.99;100.00
22550;BME280;11441;57.164;-2.120;2023-04-25T00:07:50;101181.06;;;2.54;100.00
22550;BME280;11441;57.164;-2.120;2023-04-25T00:10:18;101164.13;;;2.38;100.00
22550;BME280;11441;57.164;-2.120;2023-04-25T00:12:45;101163.50;;;2.47;100.00
22550;BME280;11441;57.164;-2.120;2023-04-25T00:15:12;101130.91;;;2.41;100.00
22550;BME280;11441;57.164;-2.120;2023-04-25T00:17:39;101149.09;;;2.46;100.00
22550;BME280;11441;57.164;-2.120;2023-04-25T00:20:07;101152.22;;;2.58;100.00
22550;BME280;11441;57.164;-2.120;2023-04-25T00:22:37;101151.94;;;2.60;100.00
22550;BME280;11441;57.164;-2.120;2023-04-25T00:25:21;101150.19;;;2.69;100.00
22550;BME280;11441;57.164;-2.120;2023-04-25T00:27:48;101137.81;;;2.77;100.00
22550;BME280;11441;57.164;-2.120;2023-04-25T00:30:14;101151.94;;;2.60;100.00
22550;BME280;11441;57.164;-2.120;2023-04-25T00:32:41;101152.16;;;2.63;100.00
22550;BME280;11441;57.164;-2.120;2023-04-25T00:35:09;101147.84;;;2.81;100.00
22550;BME280;11441;57.164;-2.120;2023-04-25T00:37:36;101147.56;;;2.59;100.00
22550;BME280;11441;57.164;-2.120;2023-04-25T00:40:05;101145.09;;;2.62;100.00
22550;BME280;11441;57.164;-2.120;2023-04-25T00:42:34;101147.28;;;2.60;100.00
22550;BME280;11441;57.164;-2.120;2023-04-25T00:45:01;101140.09;;;2.70;100.00
22550;BME280;11441;57.164;-2.120;2023-04-25T00:47:28;101142.41;;;2.81;100.00
22550;BME280;11441;57.164;-2.120;2023-04-25T00:49:55;101140.88;;;2.75;100.00
22550;BME280;11441;57.164;-2.120;2023-04-25T00:52:22;101147.84;;;2.81;100.00
22550;BME280;11441;57.164;-2.120;2023-04-25T00:54:49;101146.94;;;2.67;100.00
22550;BME280;11441;57.164;-2.120;2023-04-25T00:57:16;101138.94;;;2.76;100.00
22550;BME280;11441;57.164;-2.120;2023-04-25T00:59:45;101153.34;;;2.76;100.00
22550;BME280;11441;57.164;-2.120;2023-04-25T01:02:32;101148.19;;;2.75;100.00
22550;BME280;11441;57.164;-2.120;2023-04-25T01:04:59;101158.28;;;2.74;100.00
22550;BME280;11441;57.164;-2.120;2023-04-25T01:07:27;101153.53;;;2.61;100.00
22550;BME280;11441;57.164;-2.120;2023-04-25T01:09:55;101160.47;;;2.72;100.00
22550;BME280;11441;57.164;-2.120;2023-04-25T01:12:23;101164.88;;;2.68;100.00
22550;BME280;11441;57.164;-2.120;2023-04-25T01:14:50;101160.13;;;2.55;100.00
22550;BME280;11441;57.164;-2.120;2023-04-25T01:17:18;101145.38;;;2.61;100.00
22550;BME280;11441;57.164;-2.120;2023-04-25T01:19:44;101157.53;;;2.69;100.00
22550;BME280;11441;57.164;-2.120;2023-04-25T01:22:15;101161.34;;;2.68;100.00
22550;BME280;11441;57.164;-2.120;2023-04-25T01:24:42;101160.81;;;2.66;100.00
22550;BME280;11441;57.164;-2.120;2023-04-25T01:27:10;101155.97;;;2.62;100.00
22550;BME280;11441;57.164;-2.120;2023-04-25T01:29:38;101162.41;;;2.72;100.00
22550;BME280;11441;57.164;-2.120;2023-04-25T01:32:05;101160.13;;;2.79;100.00
22550;BME280;11441;57.164;-2.120;2023-04-25T01:34:32;101154.41;;;2.80;100.00
22550;BME280;11441;57.164;-2.120;2023-04-25T01:37:00;101154.53;;;2.70;100.00
22550;BME280;11441;57.164;-2.120;2023-04-25T01:39:28;101155.00;;;2.53;100.00
22550;BME280;11441;57.164;-2.120;2023-04-25T01:41:58;101152.72;;;2.60;100.00
22550;BME280;11441;57.164;-2.120;2023-04-25T01:44:25;101153.91;;;2.73;100.00
22550;BME280;11441;57.164;-2.120;2023-04-25T01:46:53;101151.69;;;2.56;100.00
22550;BME280;11441;57.164;-2.120;2023-04-25T01:49:20;101138.44;;;2.50;100.00
22550;BME280;11441;57.164;-2.120;2023-04-25T01:51:48;101142.19;;;2.54;100.00
22550;BME280;11441;57.164;-2.120;2023-04-25T01:54:15;101143.94;;;2.44;100.00
22550;BME280;11441;57.164;-2.120;2023-04-25T01:56:42;101141.91;;;2.55;100.00
22550;BME280;11441;57.164;-2.120;2023-04-25T01:59:10;101131.94;;;2.45;100.00
22550;BME280;11441;57.164;-2.120;2023-04-25T02:02:28;101140.00;;;2.32;100.00
22550;BME280;11441;57.164;-2.120;2023-04-25T02:04:56;101141.56;;;2.38;100.00
22550;BME280;11441;57.164;-2.120;2023-04-25T02:07:41;101139.13;;;2.36;100.00
22550;BME280;11441;57.164;-2.120;2023-04-25T02:10:08;101140.75;;;2.37;100.00
22550;BME280;11441;57.164;-2.120;2023-04-25T02:12:45;101138.56;;;2.39;100.00
22550;BME280;11441;57.164;-2.120;2023-04-25T02:15:31;101140.53;;;2.58;100.00
22550;BME280;11441;57.164;-2.120;2023-04-25T02:18:09;101152.25;;;2.29;100.00
22550;BME280;11441;57.164;-2.120;2023-04-25T02:20:39;101143.94;;;2.44;100.00
22550;BME280;11441;57.164;-2.120;2023-04-25T02:23:06;101143.59;;;2.51;100.00
22550;BME280;11441;57.164;-2.120;2023-04-25T02:25:33;101142.19;;;2.30;100.00
22550;BME280;11441;57.164;-2.120;2023-04-25T02:28:00;101143.47;;;2.37;100.00
22550;BME280;11441;57.164;-2.120;2023-04-25T02:30:45;101132.03;;;2.40;100.00
22550;BME280;11441;57.164;-2.120;2023-04-25T02:33:12;101135.09;;;2.34;100.00
22550;BME280;11441;57.164;-2.120;2023-04-25T02:35:39;101130.63;;;2.43;100.00
22550;BME280;11441;57.164;-2.120;2023-04-25T02:38:06;101137.31;;;2.51;100.00
22550;BME280;11441;57.164;-2.120;2023-04-25T02:40:32;101148.81;;;2.48;100.00
22550;BME280;11441;57.164;-2.120;2023-04-25T02:42:59;101137.75;;;2.39;100.00
22550;BME280;11441;57.164;-2.120;2023-04-25T02:45:26;101144.09;;;2.29;100.00
22550;BME280;11441;57.164;-2.120;2023-04-25T02:47:53;101148.81;;;2.48;100.00
22550;BME280;11441;57.164;-2.120;2023-04-25T02:50:20;101144.03;;;2.34;100.00
22550;BME280;11441;57.164;-2.120;2023-04-25T02:53:05;101151.00;;;2.21;100.00
22550;BME280;11441;57.164;-2.120;2023-04-25T02:55:39;101147.84;;;2.33;100.00
22550;BME280;11441;57.164;-2.120;2023-04-25T02:58:06;101142.84;;;2.21;100.00
22550;BME280;11441;57.164;-2.120;2023-04-25T03:00:43;101144.72;;;2.21;100.00
22550;BME280;11441;57.164;-2.120;2023-04-25T03:03:10;101144.91;;;2.30;100.00
22550;BME280;11441;57.164;-2.120;2023-04-25T03:05:37;101142.19;;;2.30;100.00
22550;BME280;11441;57.164;-2.120;2023-04-25T03:08:05;101149.75;;;2.08;100.00
22550;BME280;11441;57.164;-2.120;2023-04-25T03:10:33;101142.06;;;2.16;100.00
22550;BME280;11441;57.164;-2.120;2023-04-25T03:13:04;101135.03;;;2.15;100.00
22550;BME280;11441;57.164;-2.120;2023-04-25T03:15:31;101134.69;;;2.21;100.00
22550;BME280;11441;57.164;-2.120;2023-04-25T03:17:57;101127.72;;;2.10;100.00
22550;BME280;11441;57.164;-2.120;2023-04-25T03:20:24;101134.44;;;2.18;100.00
22550;BME280;11441;57.164;-2.120;2023-04-25T03:22:51;101140.97;;;2.17;100.00
22550;BME280;11441;57.164;-2.120;2023-04-25T03:25:18;101139.06;;;2.17;100.00
22550;BME280;11441;57.164;-2.120;2023-04-25T03:27:45;101139.81;;;2.23;100.00
22550;BME280;11441;57.164;-2.120;2023-04-25T03:30:12;101134.03;;;2.30;100.00
22550;BME280;11441;57.164;-2.120;2023-04-25T03:32:41;101134.38;;;2.23;100.00
22550;BME280;11441;57.164;-2.120;2023-04-25T03:35:08;101132.72;;;2.27;100.00
22550;BME280;11441;57.164;-2.120;2023-04-25T03:37:35;101120.25;;;2.21;100.00
22550;BME280;11441;57.164;-2.120;2023-04-25T03:40:02;101129.72;;;1.99;100.00
22550;BME280;11441;57.164;-2.120;2023-04-25T03:42:50;101123.38;;;2.33;100.00
22550;BME280;11441;57.164;-2.120;2023-04-25T03:45:17;101122.78;;;2.12;100.00
22550;BME280;11441;57.164;-2.120;2023-04-25T03:47:45;101130.16;;;2.12;100.00
22550;BME280;11441;57.164;-2.120;2023-04-25T03:50:12;101134.72;;;2.16;100.00
22550;BME280;11441;57.164;-2.120;2023-04-25T03:52:38;101137.59;;;2.01;100.00
22550;BME280;11441;57.164;-2.120;2023-04-25T03:55:24;101130.72;;;2.08;100.00
22550;BME280;11441;57.164;-2.120;2023-04-25T03:57:51;101134.78;;;2.11;100.00
22550;BME280;11441;57.164;-2.120;2023-04-25T04:00:19;101137.41;;;2.21;100.00
22550;BME280;11441;57.164;-2.120;2023-04-25T04:02:51;101140.16;;;1.87;100.00
22550;BME280;11441;57.164;-2.120;2023-04-25T04:05:18;101134.38;;;1.99;100.00
22550;BME280;11441;57.164;-2.120;2023-04-25T04:07:53;101148.59;;;2.15;100.00
22550;BME280;11441;57.164;-2.120;2023-04-25T04:10:21;101143.84;;;2.01;100.00
22550;BME280;11441;57.164;-2.120;2023-04-25T04:12:48;101139.97;;;2.07;100.00
22550;BME280;11441;57.164;-2.120;2023-04-25T04:15:16;101146.50;;;2.06;100.00
22550;BME280;11441;57.164;-2.120;2023-04-25T04:17:44;101141.69;;;1.98;100.00
22550;BME280;11441;57.164;-2.120;2023-04-25T04:20:12;101144.59;;;2.07;100.00
22550;BME280;11441;57.164;-2.120;2023-04-25T04:22:39;101137.16;;;2.18;100.00
22550;BME280;11441;57.164;-2.120;2023-04-25T04:25:10;101142.00;;;2.21;100.00
22550;BME280;11441;57.164;-2.120;2023-04-25T04:28:01;101139.53;;;2.24;100.00
22550;BME280;11441;57.164;-2.120;2023-04-25T04:31:00;101137.09;;;2.23;100.00
22550;BME280;11441;57.164;-2.120;2023-04-25T04:33:28;101137.22;;;2.13;100.00
22550;BME280;11441;57.164;-2.120;2023-04-25T04:35:59;101140.75;;;2.13;100.00
22550;BME280;11441;57.164;-2.120;2023-04-25T04:38:26;101147.91;;;2.28;100.00
22550;BME280;11441;57.164;-2.120;2023-04-25T04:41:19;101143.69;;;2.17;100.00
22550;BME280;11441;57.164;-2.120;2023-04-25T04:43:51;101149.63;;;2.19;100.00
22550;BME280;11441;57.164;-2.120;2023-04-25T04:46:35;101148.78;;;2.23;100.00
22550;BME280;11441;57.164;-2.120;2023-04-25T04:49:29;101142.28;;;2.19;100.00
22550;BME280;11441;57.164;-2.120;2023-04-25T04:52:26;101160.22;;;1.91;100.00
22550;BME280;11441;57.164;-2.120;2023-04-25T04:55:01;101155.22;;;2.03;100.00
22550;BME280;11441;57.164;-2.120;2023-04-25T04:57:39;101158.91;;;2.18;100.00
22550;BME280;11441;57.164;-2.120;2023-04-25T05:00:32;101163.13;;;2.00;100.00
22550;BME280;11441;57.164;-2.120;2023-04-25T05:03:15;101170.91;;;2.12;100.00
22550;BME280;11441;57.164;-2.120;2023-04-25T05:06:04;101166.03;;;2.08;100.00
22550;BME280;11441;57.164;-2.120;2023-04-25T05:08:46;101176.81;;;2.19;100.00
22550;BME280;11441;57.164;-2.120;2023-04-25T05:11:45;101163.69;;;2.26;100.00
22550;BME280;11441;57.164;-2.120;2023-04-25T05:14:33;101160.19;;;2.25;100.00
22550;BME280;11441;57.164;-2.120;2023-04-25T05:17:18;101165.47;;;2.12;100.00
22550;BME280;11441;57.164;-2.120;2023-04-25T05:20:06;101164.75;;;2.30;100.00
22550;BME280;11441;57.164;-2.120;2023-04-25T05:22:59;101180.25;;;2.30;100.00
22550;BME280;11441;57.164;-2.120;2023-04-25T05:25:45;101175.69;;;2.25;100.00
22550;BME280;11441;57.164;-2.120;2023-04-25T05:28:19;101174.44;;;2.12;100.00
22550;BME280;11441;57.164;-2.120;2023-04-25T05:31:03;101181.63;;;2.27;100.00
22550;BME280;11441;57.164;-2.120;2023-04-25T05:33:41;101194.81;;;2.44;100.00
22550;BME280;11441;57.164;-2.120;2023-04-25T05:36:08;101204.91;;;2.38;100.00
22550;BME280;11441;57.164;-2.120;2023-04-25T05:38:35;101196.38;;;2.21;100.00
22550;BME280;11441;57.164;-2.120;2023-04-25T05:41:34;101201.81;;;2.21;100.00
22550;BME280;11441;57.164;-2.120;2023-04-25T05:44:19;101197.28;;;2.11;100.00
22550;BME280;11441;57.164;-2.120;2023-04-25T05:47:06;101199.47;;;2.09;100.00
22550;BME280;11441;57.164;-2.120;2023-04-25T05:49:53;101195.38;;;2.12;100.00
22550;BME280;11441;57.164;-2.120;2023-04-25T05:52:45;101198.56;;;2.19;100.00
22550;BME280;11441;57.164;-2.120;2023-04-25T05:55:29;101191.53;;;2.42;100.00
22550;BME280;11441;57.164;-2.120;2023-04-25T05:57:58;101197.25;;;2.16;100.00
22550;BME280;11441;57.164;-2.120;2023-04-25T06:00:25;101201.19;;;2.29;100.00
22550;BME280;11441;57.164;-2.120;2023-04-25T06:02:52;101204.09;;;2.08;100.00
22550;BME280;11441;57.164;-2.120;2023-04-25T06:05:20;101207.25;;;2.21;100.00
22550;BME280;11441;57.164;-2.120;2023-04-25T06:07:47;101212.16;;;2.19;100.00
22550;BME280;11441;57.164;-2.120;2023-04-25T06:10:14;101215.00;;;2.33;100.00
22550;BME280;11441;57.164;-2.120;2023-04-25T06:12:42;101214.59;;;2.20;100.00
22550;BME280;11441;57.164;-2.120;2023-04-25T06:15:29;101215.28;;;2.31;100.00
22550;BME280;11441;57.164;-2.120;2023-04-25T06:17:59;101210.69;;;2.32;100.00
22550;BME280;11441;57.164;-2.120;2023-04-25T06:20:26;101217.13;;;2.12;100.00
22550;BME280;11441;57.164;-2.120;2023-04-25T06:22:55;101216.19;;;2.26;100.00
22550;BME280;11441;57.164;-2.120;2023-04-25T06:25:45;101227.19;;;2.11;100.00
22550;BME280;11441;57.164;-2.120;2023-04-25T06:28:12;101219.44;;;1.94;100.00
22550;BME280;11441;57.164;-2.120;2023-04-25T06:30:41;101234.09;;;1.93;100.00
22550;BME280;11441;57.164;-2.120;2023-04-25T06:33:12;101222.81;;;1.76;100.00
22550;BME280;11441;57.164;-2.120;2023-04-25T06:35:40;101215.22;;;1.78;100.00
22550;BME280;11441;57.164;-2.120;2023-04-25T06:38:10;101201.72;;;1.67;100.00
22550;BME280;11441;57.164;-2.120;2023-04-25T06:40:38;101205.78;;;1.65;100.00
22550;BME280;11441;57.164;-2.120;2023-04-25T06:43:08;101207.00;;;1.48;100.00
22550;BME280;11441;57.164;-2.120;2023-04-25T06:46:05;101211.69;;;1.77;100.00
22550;BME280;11441;57.164;-2.120;2023-04-25T06:48:39;101207.72;;;1.99;100.00
22550;BME280;11441;57.164;-2.120;2023-04-25T06:51:06;101198.78;;;1.93;100.00
22550;BME280;11441;57.164;-2.120;2023-04-25T06:53:34;101202.09;;;2.19;100.00
22550;BME280;11441;57.164;-2.120;2023-04-25T06:56:04;101203.16;;;2.23;100.00
22550;BME280;11441;57.164;-2.120;2023-04-25T06:58:43;101211.22;;;2.34;100.00
22550;BME280;11441;57.164;-2.120;2023-04-25T07:01:36;101201.88;;;2.40;100.00
22550;BME280;11441;57.164;-2.120;2023-04-25T07:04:08;101219.44;;;2.53;100.00
22550;BME280;11441;57.164;-2.120;2023-04-25T07:06:39;101220.44;;;2.62;100.00
22550;BME280;11441;57.164;-2.120;2023-04-25T07:09:10;101215.41;;;2.74;100.00
22550;BME280;11441;57.164;-2.120;2023-04-25T07:11:38;101219.94;;;2.84;100.00
22550;BME280;11441;57.164;-2.120;2023-04-25T07:14:23;101215.78;;;3.11;100.00
22550;BME280;11441;57.164;-2.120;2023-04-25T07:16:51;101215.28;;;3.09;100.00
22550;BME280;11441;57.164;-2.120;2023-04-25T07:19:18;101209.91;;;3.23;100.00
22550;BME280;11441;57.164;-2.120;2023-04-25T07:21:45;101201.66;;;3.09;100.00
22550;BME280;11441;57.164;-2.120;2023-04-25T07:24:12;101220.44;;;3.10;100.00
22550;BME280;11441;57.164;-2.120;2023-04-25T07:26:44;101213.47;;;2.99;100.00
22550;BME280;11441;57.164;-2.120;2023-04-25T07:29:25;101215.22;;;3.14;100.00
22550;BME280;11441;57.164;-2.120;2023-04-25T07:31:52;101208.34;;;3.16;100.00
22550;BME280;11441;57.164;-2.120;2023-04-25T07:34:38;101218.09;;;3.23;100.00
22550;BME280;11441;57.164;-2.120;2023-04-25T07:37:05;101211.47;;;3.67;100.00
22550;BME280;11441;57.164;-2.120;2023-04-25T07:39:41;101210.00;;;3.55;100.00
22550;BME280;11441;57.164;-2.120;2023-04-25T07:42:26;101218.19;;;3.55;100.00
22550;BME280;11441;57.164;-2.120;2023-04-25T07:44:53;101227.88;;;3.62;100.00
22550;BME280;11441;57.164;-2.120;2023-04-25T07:47:21;101231.25;;;3.53;100.00
22550;BME280;11441;57.164;-2.120;2023-04-25T07:49:48;101235.25;;;3.80;100.00
22550;BME280;11441;57.164;-2.120;2023-04-25T07:52:33;101241.19;;;3.82;100.00
22550;BME280;11441;57.164;-2.120;2023-04-25T07:55:15;101235.00;;;3.95;100.00
22550;BME280;11441;57.164;-2.120;2023-04-25T07:57:55;101232.38;;;4.23;100.00
22550;BME280;11441;57.164;-2.120;2023-04-25T08:00:22;101236.19;;;4.22;100.00
22550;BME280;11441;57.164;-2.120;2023-04-25T08:03:00;101215.16;;;4.09;100.00
22550;BME280;11441;57.164;-2.120;2023-04-25T08:05:28;101242.16;;;3.91;100.00
22550;BME280;11441;57.164;-2.120;2023-04-25T08:08:01;101245.16;;;3.90;100.00
22550;BME280;11441;57.164;-2.120;2023-04-25T08:10:29;101242.03;;;4.15;100.00
22550;BME280;11441;57.164;-2.120;2023-04-25T08:12:56;101236.69;;;4.24;100.00
22550;BME280;11441;57.164;-2.120;2023-04-25T08:15:23;101240.72;;;4.13;100.00
22550;BME280;11441;57.164;-2.120;2023-04-25T08:17:50;101242.75;;;4.21;100.00
22550;BME280;11441;57.164;-2.120;2023-04-25T08:20:17;101237.25;;;4.07;100.00
22550;BME280;11441;57.164;-2.120;2023-04-25T08:22:44;101239.09;;;4.12;100.00
22550;BME280;11441;57.164;-2.120;2023-04-25T08:25:25;101239.16;;;4.40;100.00
22550;BME280;11441;57.164;-2.120;2023-04-25T08:28:11;101233.91;;;4.43;100.00
22550;BME280;11441;57.164;-2.120;2023-04-25T08:30:38;101241.41;;;4.38;100.00
22550;BME280;11441;57.164;-2.120;2023-04-25T08:33:08;101252.94;;;4.62;100.00
22550;BME280;11441;57.164;-2.120;2023-04-25T08:35:56;101260.34;;;4.29;100.00
22550;BME280;11441;57.164;-2.120;2023-04-25T08:38:24;101248.78;;;4.51;100.00
22550;BME280;11441;57.164;-2.120;2023-04-25T08:40:54;101247.16;;;4.50;100.00
22550;BME280;11441;57.164;-2.120;2023-04-25T08:43:23;101264.38;;;4.78;100.00
22550;BME280;11441;57.164;-2.120;2023-04-25T08:45:52;101248.97;;;4.41;100.00
22550;BME280;11441;57.164;-2.120;2023-04-25T08:48:32;101248.28;;;4.63;100.00
22550;BME280;11441;57.164;-2.120;2023-04-25T08:51:02;101251.16;;;4.39;100.00
22550;BME280;11441;57.164;-2.120;2023-04-25T08:53:32;101261.34;;;4.80;100.00
22550;BME280;11441;57.164;-2.120;2023-04-25T08:56:04;101261.06;;;4.95;100.00
22550;BME280;11441;57.164;-2.120;2023-04-25T08:58:35;101247.63;;;4.85;100.00
22550;BME280;11441;57.164;-2.120;2023-04-25T09:01:03;101264.88;;;4.66;100.00
22550;BME280;11441;57.164;-2.120;2023-04-25T09:03:36;101262.66;;;4.96;100.00
22550;BME280;11441;57.164;-2.120;2023-04-25T09:06:04;101267.13;;;4.92;100.00
22550;BME280;11441;57.164;-2.120;2023-04-25T09:08:31;101260.53;;;4.65;100.00
22550;BME280;11441;57.164;-2.120;2023-04-25T09:10:58;101262.88;;;5.00;100.00
22550;BME280;11441;57.164;-2.120;2023-04-25T09:13:27;101259.72;;;4.79;100.00
22550;BME280;11441;57.164;-2.120;2023-04-25T09:16:17;101285.41;;;4.78;100.00
22550;BME280;11441;57.164;-2.120;2023-04-25T09:19:07;101263.63;;;4.12;100.00
22550;BME280;11441;57.164;-2.120;2023-04-25T09:21:34;101283.53;;;4.45;100.00
22550;BME280;11441;57.164;-2.120;2023-04-25T09:24:02;101266.09;;;4.27;100.00
22550;BME280;11441;57.164;-2.120;2023-04-25T09:26:28;101272.31;;;4.14;100.00
22550;BME280;11441;57.164;-2.120;2023-04-25T09:29:06;101282.94;;;4.15;100.00
22550;BME280;11441;57.164;-2.120;2023-04-25T09:31:36;101274.91;;;4.38;100.00
22550;BME280;11441;57.164;-2.120;2023-04-25T09:34:20;101269.91;;;4.59;100.00
22550;BME280;11441;57.164;-2.120;2023-04-25T09:36:54;101294.56;;;4.54;100.00
22550;BME280;11441;57.164;-2.120;2023-04-25T09:39:49;101277.22;;;4.64;100.00
22550;BME280;11441;57.164;-2.120;2023-04-25T09:42:17;101283.81;;;5.04;100.00
22550;BME280;11441;57.164;-2.120;2023-04-25T09:44:45;101276.59;;;4.53;100.00
22550;BME280;11441;57.164;-2.120;2023-04-25T09:47:15;101282.59;;;4.83;100.00
22550;BME280;11441;57.164;-2.120;2023-04-25T09:50:04;101285.25;;;5.16;100.00
22550;BME280;11441;57.164;-2.120;2023-04-25T09:52:40;101276.41;;;5.19;100.00
22550;BME280;11441;57.164;-2.120;2023-04-25T09:55:15;101286.84;;;5.17;100.00
22550;BME280;11441;57.164;-2.120;2023-04-25T09:57:47;101289.66;;;5.39;100.00
22550;BME280;11441;57.164;-2.120;2023-04-25T10:00:14;101285.59;;;5.51;100.00
22550;BME280;11441;57.164;-2.120;2023-04-25T10:02:46;101286.81;;;5.44;100.00
22550;BME280;11441;57.164;-2.120;2023-04-25T10:05:41;101303.13;;;5.22;100.00
22550;BME280;11441;57.164;-2.120;2023-04-25T10:08:11;101295.22;;;5.34;100.00
22550;BME280;11441;57.164;-2.120;2023-04-25T10:10:39;101291.59;;;5.25;100.00
22550;BME280;11441;57.164;-2.120;2023-04-25T10:13:06;101291.59;;;5.11;100.00
22550;BME280;11441;57.164;-2.120;2023-04-25T10:15:35;101297.47;;;5.18;100.00
22550;BME280;11441;57.164;-2.120;2023-04-25T10:18:06;101294.13;;;5.21;100.00
22550;BME280;11441;57.164;-2.120;2023-04-25T10:20:34;101298.91;;;5.16;100.00
22550;BME280;11441;57.164;-2.120;2023-04-25T10:23:15;101292.25;;;5.58;100.00
22550;BME280;11441;57.164;-2.120;2023-04-25T10:25:43;101304.72;;;5.64;100.00
22550;BME280;11441;57.164;-2.120;2023-04-25T10:28:10;101293.63;;;5.83;100.00
22550;BME280;11441;57.164;-2.120;2023-04-25T10:30:50;101289.44;;;6.00;100.00
22550;BME280;11441;57.164;-2.120;2023-04-25T10:33:32;101289.19;;;5.74;100.00
22550;BME280;11441;57.164;-2.120;2023-04-25T10:36:15;101305.19;;;5.80;100.00
22550;BME280;11441;57.164;-2.120;2023-04-25T10:38:45;101295.91;;;6.04;100.00
22550;BME280;11441;57.164;-2.120;2023-04-25T10:41:13;101301.78;;;5.97;100.00
22550;BME280;11441;57.164;-2.120;2023-04-25T10:43:41;101302.53;;;6.26;100.00
22550;BME280;11441;57.164;-2.120;2023-04-25T10:46:22;101309.78;;;6.30;100.00
22550;BME280;11441;57.164;-2.120;2023-04-25T10:51:36;101319.06;;;5.70;100.00
22550;BME280;11441;57.164;-2.120;2023-04-25T10:54:22;101309.13;;;5.74;100.00
22550;BME280;11441;57.164;-2.120;2023-04-25T10:56:50;101313.50;;;5.75;100.00
22550;BME280;11441;57.164;-2.120;2023-04-25T10:59:19;101312.94;;;5.51;100.00
22550;BME280;11441;57.164;-2.120;2023-04-25T11:01:47;101312.00;;;5.55;100.00
22550;BME280;11441;57.164;-2.120;2023-04-25T11:04:29;101311.31;;;6.00;100.00
22550;BME280;11441;57.164;-2.120;2023-04-25T11:09:35;101319.84;;;5.98;100.00
22550;BME280;11441;57.164;-2.120;2023-04-25T11:12:21;101337.63;;;5.59;100.00
22550;BME280;11441;57.164;-2.120;2023-04-25T11:14:47;101323.34;;;5.48;100.00
22550;BME280;11441;57.164;-2.120;2023-04-25T11:17:14;101326.69;;;5.18;100.00
22550;BME280;11441;57.164;-2.120;2023-04-25T11:19:41;101335.31;;;5.25;100.00
22550;BME280;11441;57.164;-2.120;2023-04-25T11:22:10;101332.66;;;5.34;100.00
22550;BME280;11441;57.164;-2.120;2023-04-25T11:24:37;101341.25;;;5.27;100.00
22550;BME280;11441;57.164;-2.120;2023-04-25T11:27:04;101332.56;;;5.39;100.00
22550;BME280;11441;57.164;-2.120;2023-04-25T11:29:34;101332.16;;;5.59;100.00
22550;BME280;11441;57.164;-2.120;2023-04-25T11:32:02;101336.25;;;5.84;100.00
22550;BME280;11441;57.164;-2.120;2023-04-25T11:34:29;101336.00;;;5.95;100.00
22550;BME280;11441;57.164;-2.120;2023-04-25T11:37:01;101328.84;;;5.85;100.00
22550;BME280;11441;57.164;-2.120;2023-04-25T11:39:28;101326.75;;;6.18;100.00
22550;BME280;11441;57.164;-2.120;2023-04-25T11:41:56;101325.25;;;6.35;100.00
22550;BME280;11441;57.164;-2.120;2023-04-25T11:44:23;101310.34;;;6.41;100.00
22550;BME280;11441;57.164;-2.120;2023-04-25T11:46:50;101337.31;;;6.56;100.00
22550;BME280;11441;57.164;-2.120;2023-04-25T11:49:16;101317.34;;;6.56;100.00
22550;BME280;11441;57.164;-2.120;2023-04-25T11:51:48;101320.72;;;6.84;99.80
22550;BME280;11441;57.164;-2.120;2023-04-25T11:54:16;101310.88;;;6.74;95.79
22550;BME280;11441;57.164;-2.120;2023-04-25T11:56:44;101310.88;;;6.74;94.56
22550;BME280;11441;57.164;-2.120;2023-04-25T11:59:13;101310.53;;;6.45;93.72
22550;BME280;11441;57.164;-2.120;2023-04-25T12:01:48;101301.91;;;6.60;95.73
22550;BME280;11441;57.164;-2.120;2023-04-25T12:04:22;101291.50;;;7.02;91.99
22550;BME280;11441;57.164;-2.120;2023-04-25T12:07:09;101319.75;;;6.80;84.32
22550;BME280;11441;57.164;-2.120;2023-04-25T12:09:55;101283.13;;;6.98;84.71
22550;BME280;11441;57.164;-2.120;2023-04-25T12:12:27;101296.47;;;7.00;86.45
22550;BME280;11441;57.164;-2.120;2023-04-25T12:14:54;101287.53;;;7.17;86.42
22550;BME280;11441;57.164;-2.120;2023-04-25T12:17:22;101329.56;;;7.12;88.02
22550;BME280;11441;57.164;-2.120;2023-04-25T12:19:49;101296.34;;;7.05;89.41
22550;BME280;11441;57.164;-2.120;2023-04-25T12:22:20;101304.47;;;7.28;90.52
22550;BME280;11441;57.164;-2.120;2023-04-25T12:25:06;101307.03;;;7.24;90.82
22550;BME280;11441;57.164;-2.120;2023-04-25T12:27:35;101307.84;;;7.16;88.47
22550;BME280;11441;57.164;-2.120;2023-04-25T12:30:02;101301.53;;;7.15;87.10
22550;BME280;11441;57.164;-2.120;2023-04-25T12:32:30;101316.66;;;7.04;92.10
22550;BME280;11441;57.164;-2.120;2023-04-25T12:34:57;101369.09;;;6.44;100.00
22550;BME280;11441;57.164;-2.120;2023-04-25T12:37:24;101339.88;;;5.80;100.00
22550;BME280;11441;57.164;-2.120;2023-04-25T12:39:50;101356.84;;;5.68;100.00
22550;BME280;11441;57.164;-2.120;2023-04-25T12:42:17;101356.75;;;5.59;100.00
22550;BME280;11441;57.164;-2.120;2023-04-25T12:45:02;101369.06;;;5.43;100.00
22550;BME280;11441;57.164;-2.120;2023-04-25T12:47:29;101355.31;;;5.62;100.00
22550;BME280;11441;57.164;-2.120;2023-04-25T12:49:56;101354.72;;;5.65;100.00
22550;BME280;11441;57.164;-2.120;2023-04-25T12:52:23;101353.25;;;5.81;100.00
22550;BME280;11441;57.164;-2.120;2023-04-25T12:55:09;101350.25;;;6.19;100.00
22550;BME280;11441;57.164;-2.120;2023-04-25T12:57:36;101356.66;;;6.15;100.00
22550;BME280;11441;57.164;-2.120;2023-04-25T13:00:03;101359.22;;;5.97;100.00
22550;BME280;11441;57.164;-2.120;2023-04-25T13:02:31;101356.06;;;5.90;100.00
22550;BME280;11441;57.164;-2.120;2023-04-25T13:05:16;101360.72;;;5.90;100.00
22550;BME280;11441;57.164;-2.120;2023-04-25T13:07:43;101353.91;;;6.37;100.00
22550;BME280;11441;57.164;-2.120;2023-04-25T13:10:10;101358.47;;;6.65;100.00
22550;BME280;11441;57.164;-2.120;2023-04-25T13:12:55;101364.75;;;6.42;100.00